Time;durP1;ratioP1;P1;durP2;ratioP2;P2;SDS_P1;SDS_P2;PMS_P1;PMS_P2;Temp;Humidity;BMP_temperature;BMP_pressure;BME280_temperature;BME280_humidity;BME280_pressure;Samples;Min_cycle;Max_cycle;Signal;HPM_P1;HPM_P2
2020/12/10 00:01:49;;;;;;;53.35;49.90;;;;;;;14.53;46.56;99156.91;4437618;32;32657;-85
2020/12/10 00:04:17;;;;;;;53.05;49.70;;;;;;;14.74;46.04;99154.06;4425281;32;33250;-85
2020/12/10 00:06:44;;;;;;;53.42;49.88;;;;;;;14.61;46.23;99152.09;4425273;32;34127;-86
2020/12/10 00:09:11;;;;;;;52.90;49.60;;;;;;;15.31;44.49;99140.22;4439085;32;33558;-86
2020/12/10 00:11:39;;;;;;;54.08;50.58;;;;;;;15.42;44.24;99143.03;4437905;32;32527;-87
2020/12/10 00:14:06;;;;;;;53.92;50.45;;;;;;;15.22;44.52;99144.22;4438075;32;34701;-86
2020/12/10 00:16:36;;;;;;;53.05;49.67;;;;;;;14.26;47.01;99148.84;4413002;32;32656;-86
2020/12/10 00:19:03;;;;;;;53.72;50.30;;;;;;;15.43;44.05;99143.88;4437802;32;33975;-87
2020/12/10 00:21:30;;;;;;;53.10;49.70;;;;;;;14.08;47.48;99142.84;4438827;32;34021;-86
2020/12/10 00:23:58;;;;;;;53.38;49.88;;;;;;;14.44;46.55;99120.75;4437410;32;33853;-86
2020/12/10 00:26:25;;;;;;;53.67;50.20;;;;;;;14.84;45.30;99124.56;4437782;32;33602;-86
2020/12/10 00:28:52;;;;;;;53.53;50.08;;;;;;;14.95;44.94;99126.56;4437658;32;33695;-86
2020/12/10 00:31:19;;;;;;;53.00;49.55;;;;;;;15.42;43.74;99124.66;4438731;32;34051;-86
2020/12/10 00:33:46;;;;;;;53.10;49.72;;;;;;;15.46;43.46;99125.31;4437585;32;33569;-86
2020/12/10 00:36:14;;;;;;;52.58;49.38;;;;;;;14.70;45.50;99124.53;4437701;32;34128;-87
2020/12/10 00:38:41;;;;;;;53.13;49.75;;;;;;;14.26;46.46;99125.25;4437731;32;32743;-86
2020/12/10 00:41:09;;;;;;;52.17;48.83;;;;;;;14.47;46.10;99133.69;4412348;32;32471;-84
2020/12/10 00:43:36;;;;;;;53.80;50.30;;;;;;;14.30;46.48;99127.62;4424995;32;33786;-85
2020/12/10 00:46:04;;;;;;;53.87;50.40;;;;;;;14.06;47.25;99131.63;4437521;32;32750;-85
2020/12/10 00:48:32;;;;;;;52.28;48.85;;;;;;;14.68;45.58;99126.41;4424954;32;32370;-87
2020/12/10 00:51:01;;;;;;;53.85;50.35;;;;;;;14.70;45.73;99129.78;4425066;32;33887;-86
2020/12/10 00:53:29;;;;;;;54.28;50.78;;;;;;;14.73;45.40;99134.88;4438080;32;33838;-85
2020/12/10 00:55:57;;;;;;;53.45;50.00;;;;;;;14.37;46.38;99125.50;4437859;32;33576;-85
2020/12/10 00:58:45;;;;;;;53.55;50.12;;;;;;;14.29;46.69;99127.69;4446684;32;35053;-85
2020/12/10 01:01:21;;;;;;;53.72;50.25;;;;;;;14.53;45.98;99130.69;4447170;32;34588;-83
2020/12/10 01:03:48;;;;;;;52.60;49.30;;;;;;;14.12;47.02;99126.88;4439072;32;34275;-86
2020/12/10 01:06:15;;;;;;;53.08;49.78;;;;;;;14.44;46.31;99125.97;4437452;32;34986;-86
2020/12/10 01:08:42;;;;;;;53.80;50.38;;;;;;;13.87;47.57;99119.53;4437807;32;34742;-86
2020/12/10 01:11:28;;;;;;;52.97;49.60;;;;;;;13.34;49.28;99113.56;4437070;32;34425;-86
2020/12/10 01:14:14;;;;;;;53.42;50.03;;;;;;;14.46;46.05;99113.66;4426985;32;34904;-87
2020/12/10 01:16:41;;;;;;;52.80;49.40;;;;;;;14.12;47.08;99112.91;4438754;32;33569;-87
2020/12/10 01:19:17;;;;;;;53.33;49.88;;;;;;;14.31;46.42;99105.72;4437494;32;34991;-86
2020/12/10 01:21:44;;;;;;;53.13;49.72;;;;;;;14.58;45.88;99094.59;4437443;32;34616;-86
2020/12/10 01:24:12;;;;;;;52.97;49.78;;;;;;;14.93;44.91;99096.97;4424555;32;34539;-86
2020/12/10 01:26:39;;;;;;;52.92;49.47;;;;;;;14.76;45.07;99089.22;4438820;32;33305;-87
2020/12/10 01:29:06;;;;;;;52.08;48.78;;;;;;;14.43;45.53;99088.47;4438711;32;34668;-85
2020/12/10 01:31:33;;;;;;;52.70;49.40;;;;;;;14.57;44.96;99079.81;4437640;32;34688;-87
2020/12/10 01:34:05;;;;;;;52.62;49.22;;;;;;;14.64;45.01;99072.47;4439010;32;33703;-87
2020/12/10 01:36:32;;;;;;;53.42;49.95;;;;;;;14.51;45.16;99067.88;4437268;32;33452;-87
2020/12/10 01:39:02;;;;;;;52.20;49.00;;;;;;;14.32;45.78;99069.91;4438501;32;34781;-87
2020/12/10 01:41:31;;;;;;;53.65;50.12;;;;;;;14.96;44.11;99064.47;4424842;32;34097;-85
2020/12/10 01:44:12;;;;;;;;;;;;;;;14.56;45.32;99061.53;4437543;32;33723;-86
2020/12/10 01:46:46;;;;;;;52.25;49.05;;;;;;;14.42;45.72;99054.47;4425464;32;33490;-87
2020/12/10 01:49:14;;;;;;;51.53;48.30;;;;;;;14.20;46.30;99053.94;4437286;32;33905;-86
2020/12/10 01:51:41;;;;;;;52.85;49.55;;;;;;;14.55;45.31;99049.38;4424769;32;33280;-85
2020/12/10 01:54:08;;;;;;;53.28;49.95;;;;;;;14.11;46.49;99043.97;4424621;32;33670;-85
2020/12/10 01:56:35;;;;;;;52.88;49.42;;;;;;;14.46;45.82;99046.34;4437274;32;33171;-87
2020/12/10 01:59:04;;;;;;;52.45;49.15;;;;;;;14.20;46.13;99045.25;4437520;32;34676;-86
2020/12/10 02:01:31;;;;;;;53.63;50.05;;;;;;;13.85;46.95;99042.81;4437461;32;34429;-86
2020/12/10 02:04:00;;;;;;;53.33;49.95;;;;;;;14.16;46.39;99047.19;4424767;32;33688;-86
2020/12/10 02:06:27;;;;;;;53.00;49.80;;;;;;;14.45;45.72;99043.81;4437439;32;33338;-86
2020/12/10 02:08:55;;;;;;;53.42;49.97;;;;;;;14.39;45.80;99046.81;4437358;32;32755;-86
2020/12/10 02:11:28;;;;;;;54.05;50.45;;;;;;;13.45;48.15;99039.78;4437558;32;33710;-86
2020/12/10 02:13:55;;;;;;;52.60;49.40;;;;;;;13.45;48.58;99035.38;4437197;32;34559;-85
2020/12/10 02:16:22;;;;;;;53.50;50.10;;;;;;;13.86;47.32;99034.03;4442008;32;34285;-84
2020/12/10 02:18:55;;;;;;;53.67;50.17;;;;;;;14.37;46.12;99025.91;4447581;32;33981;-84
2020/12/10 02:21:23;;;;;;;53.03;49.53;;;;;;;13.64;47.80;99027.38;4446730;32;34095;-87
2020/12/10 02:23:54;;;;;;;53.72;50.45;;;;;;;13.75;47.38;99018.06;4437807;32;33603;-86
2020/12/10 02:26:26;;;;;;;52.65;49.22;;;;;;;14.57;45.36;99014.28;4437012;32;33206;-86
2020/12/10 02:29:00;;;;;;;53.35;49.95;;;;;;;13.67;47.36;99005.44;4437076;32;33885;-87
2020/12/10 02:31:29;;;;;;;52.40;49.17;;;;;;;14.15;46.24;99000.97;4437142;32;34743;-85
2020/12/10 02:33:59;;;;;;;53.58;49.97;;;;;;;14.86;44.25;98996.84;4438244;32;34496;-86
2020/12/10 02:36:26;;;;;;;53.92;50.55;;;;;;;14.34;45.58;98990.25;4424260;32;33374;-86
2020/12/10 02:38:53;;;;;;;52.62;49.42;;;;;;;14.65;44.80;98987.63;4424154;32;32608;-86
2020/12/10 02:41:21;;;;;;;53.63;50.00;;;;;;;15.04;43.82;98983.53;4436765;32;34700;-85
2020/12/10 02:43:48;;;;;;;53.78;50.35;;;;;;;14.58;44.92;98981.88;4424418;32;34076;-87
2020/12/10 02:46:17;;;;;;;52.88;49.47;;;;;;;14.85;43.93;98974.16;4438234;32;33608;-86
2020/12/10 02:48:45;;;;;;;53.67;50.25;;;;;;;15.07;43.56;98978.09;4437104;32;34725;-87
2020/12/10 02:51:12;;;;;;;52.33;48.92;;;;;;;14.51;44.96;98972.69;4437073;32;34832;-86
2020/12/10 02:53:39;;;;;;;54.22;50.65;;;;;;;14.66;44.67;98971.78;4436826;32;33854;-86
2020/12/10 02:56:11;;;;;;;53.75;50.25;;;;;;;13.81;46.92;98965.37;4437218;32;33602;-85
2020/12/10 02:58:39;;;;;;;53.65;50.05;;;;;;;13.82;46.98;98961.84;4438212;32;34061;-87
2020/12/10 03:01:11;;;;;;;54.45;50.78;;;;;;;13.65;47.52;98955.78;4424281;32;34032;-85
2020/12/10 03:03:38;;;;;;;;;;;;;;;13.95;46.33;98952.34;4424610;32;32359;-86
2020/12/10 03:06:06;;;;;;;52.60;49.40;;;;;;;13.55;47.55;98954.59;4437631;32;33442;-86
2020/12/10 03:08:37;;;;;;;53.22;49.72;;;;;;;13.57;47.53;98955.34;4437675;32;34051;-87
2020/12/10 03:11:04;;;;;;;52.58;49.30;;;;;;;12.91;49.37;98951.06;4437144;32;33565;-85
2020/12/10 03:13:31;;;;;;;54.85;51.33;;;;;;;12.89;49.65;98959.00;4424069;32;33903;-86
2020/12/10 03:15:59;;;;;;;54.40;50.92;;;;;;;12.89;49.66;98953.75;4437197;32;32991;-87
2020/12/10 03:18:26;;;;;;;52.90;49.50;;;;;;;13.13;49.09;98950.75;4437888;32;34554;-87
2020/12/10 03:20:54;;;;;;;53.42;49.92;;;;;;;13.26;48.86;98946.56;4424225;32;32611;-87
2020/12/10 03:23:22;;;;;;;53.20;49.70;;;;;;;12.84;49.87;98945.31;4436836;32;32238;-85
2020/12/10 03:25:49;;;;;;;53.78;50.17;;;;;;;13.30;48.74;98940.22;4436580;32;33376;-86
2020/12/10 03:28:16;;;;;;;53.28;49.88;;;;;;;13.06;49.01;98947.63;4437220;32;33363;-87
2020/12/10 03:30:43;;;;;;;53.95;50.35;;;;;;;13.42;48.28;98948.38;4437986;32;33923;-86
2020/12/10 03:33:11;;;;;;;53.85;50.42;;;;;;;13.55;48.07;98946.75;4436533;32;33381;-85
2020/12/10 03:35:38;;;;;;;52.28;49.15;;;;;;;13.78;47.34;98950.69;4423039;32;31982;-86
2020/12/10 03:38:06;;;;;;;53.50;50.10;;;;;;;13.10;49.16;98954.38;4437473;32;33398;-85
2020/12/10 03:40:33;;;;;;;57.13;52.97;;;;;;;13.65;47.93;98963.63;4436293;32;33422;-87
2020/12/10 03:43:00;;;;;;;58.10;53.90;;;;;;;14.18;46.65;98958.03;4437566;32;34150;-86
2020/12/10 03:45:27;;;;;;;56.65;52.65;;;;;;;14.27;46.26;98952.25;4423715;32;32850;-86
2020/12/10 03:47:54;;;;;;;54.17;50.58;;;;;;;13.99;47.06;98958.25;4436339;32;34723;-86
2020/12/10 03:50:21;;;;;;;53.10;49.80;;;;;;;13.51;48.45;98967.00;4423464;32;33513;-86
2020/12/10 03:52:49;;;;;;;56.05;52.25;;;;;;;12.94;50.14;98969.22;4436234;32;34296;-87
2020/12/10 03:55:16;;;;;;;57.15;53.28;;;;;;;12.25;52.26;98974.44;4436252;32;34248;-86
2020/12/10 03:57:43;;;;;;;56.17;52.05;;;;;;;12.84;51.09;98969.72;4436248;32;33990;-85
2020/12/10 04:00:11;;;;;;;55.12;51.33;;;;;;;12.88;50.94;98966.91;4436042;32;33805;-86
2020/12/10 04:02:38;;;;;;;55.50;51.70;;;;;;;13.13;50.50;98961.22;4436169;32;34511;-86
2020/12/10 04:05:05;;;;;;;54.38;50.67;;;;;;;13.49;49.42;98960.16;4423709;32;33438;-85
2020/12/10 04:07:32;;;;;;;53.30;49.90;;;;;;;13.32;49.66;98953.22;4423091;32;32971;-86
2020/12/10 04:09:59;;;;;;;54.72;51.13;;;;;;;13.49;49.10;98961.00;4437249;32;34150;-87
2020/12/10 04:12:26;;;;;;;53.20;49.80;;;;;;;14.36;46.68;98956.13;4436176;32;34416;-86
2020/12/10 04:14:54;;;;;;;53.03;49.70;;;;;;;13.91;47.82;98956.06;4423211;32;33598;-86
2020/12/10 04:17:21;;;;;;;53.70;50.28;;;;;;;14.02;47.35;98947.59;4436296;32;33830;-85
2020/12/10 04:19:48;;;;;;;53.97;50.65;;;;;;;14.12;47.06;98958.38;4435834;32;33762;-86
2020/12/10 04:22:15;;;;;;;53.80;50.12;;;;;;;14.25;46.55;98948.84;4423185;32;33148;-86
2020/12/10 04:24:42;;;;;;;53.47;50.08;;;;;;;14.06;47.10;98949.09;4423102;32;33130;-86
2020/12/10 04:27:09;;;;;;;53.75;50.22;;;;;;;14.27;46.40;98936.53;4435845;32;33760;-86
2020/12/10 04:29:36;;;;;;;53.60;50.00;;;;;;;14.48;45.79;98938.81;4422893;32;34513;-85
2020/12/10 04:32:04;;;;;;;54.40;50.97;;;;;;;14.40;46.07;98934.03;4422918;32;34080;-87
2020/12/10 04:34:31;;;;;;;53.63;50.20;;;;;;;14.78;45.26;98928.25;4435483;32;33503;-86
2020/12/10 04:36:58;;;;;;;53.15;49.75;;;;;;;14.30;47.07;98930.25;4429537;32;33929;-84
2020/12/10 04:39:25;;;;;;;53.65;50.25;;;;;;;14.93;45.26;98942.22;4435488;32;34386;-86
2020/12/10 04:41:52;;;;;;;54.15;50.65;;;;;;;15.27;44.59;98934.84;4436992;32;33941;-86
2020/12/10 04:44:20;;;;;;;54.03;50.50;;;;;;;14.50;46.11;98936.94;4435796;32;33344;-85
2020/12/10 04:46:47;;;;;;;53.10;49.90;;;;;;;14.04;47.19;98945.75;4437188;32;33494;-87
2020/12/10 04:49:14;;;;;;;53.00;49.70;;;;;;;15.02;44.56;98936.41;4438087;32;34846;-87
2020/12/10 04:51:42;;;;;;;52.70;49.53;;;;;;;15.00;44.60;98935.66;4437650;32;32685;-87
2020/12/10 04:54:09;;;;;;;52.53;49.33;;;;;;;14.00;47.08;98938.97;4439567;32;33495;-84
2020/12/10 04:56:37;;;;;;;51.78;48.67;;;;;;;14.20;46.34;98937.84;4444854;32;33653;-85
2020/12/10 04:59:04;;;;;;;51.70;48.60;;;;;;;13.85;46.94;98936.34;4445757;32;34429;-84
2020/12/10 05:01:32;;;;;;;52.10;48.95;;;;;;;14.26;45.93;98931.38;4414647;32;33021;-87
2020/12/10 05:04:00;;;;;;;52.17;48.97;;;;;;;14.39;45.49;98936.75;4425037;32;32356;-86
2020/12/10 05:06:27;;;;;;;52.20;48.97;;;;;;;13.40;48.54;98945.84;4437785;32;34873;-85
2020/12/10 05:09:06;;;;;;;52.53;49.33;;;;;;;13.02;49.37;98941.72;4437460;32;33747;-85
2020/12/10 05:11:36;;;;;;;53.10;49.75;;;;;;;13.96;47.20;98948.81;4424615;32;32365;-87
2020/12/10 05:14:04;;;;;;;51.95;48.75;;;;;;;13.74;47.76;98937.88;4437554;32;33925;-86
2020/12/10 05:16:31;;;;;;;52.20;49.10;;;;;;;13.50;48.25;98941.75;4425060;32;34654;-86
2020/12/10 05:19:18;;;;;;;52.40;49.13;;;;;;;13.59;48.16;98947.41;4424968;32;33033;-86
2020/12/10 05:22:06;;;;;;;52.47;49.38;;;;;;;14.24;46.37;98941.09;4411911;32;32664;-86
2020/12/10 05:24:33;;;;;;;54.00;50.45;;;;;;;14.24;46.22;98943.72;4424656;32;33309;-87
2020/12/10 05:27:20;;;;;;;54.72;50.72;;;;;;;13.92;46.83;98947.28;4437428;32;33671;-86
2020/12/10 05:29:49;;;;;;;53.25;49.70;;;;;;;13.86;47.56;98948.47;4437158;32;33981;-87
2020/12/10 05:32:32;;;;;;;51.92;48.63;;;;;;;14.30;46.65;98941.56;4437112;32;34641;-85
2020/12/10 05:35:17;;;;;;;52.80;49.50;;;;;;;14.52;45.95;98943.78;4424477;32;33436;-86
2020/12/10 05:37:45;;;;;;;54.25;50.85;;;;;;;14.87;45.07;98947.84;4438435;32;33322;-86
2020/12/10 05:40:13;;;;;;;52.78;49.53;;;;;;;14.97;44.77;98941.09;4424717;32;32524;-85
2020/12/10 05:42:42;;;;;;;52.72;49.38;;;;;;;13.59;48.50;98950.88;4437475;32;33781;-86
2020/12/10 05:45:17;;;;;;;58.15;53.75;;;;;;;12.82;50.48;98948.03;4437867;32;33408;-87
2020/12/10 05:47:45;;;;;;;55.00;51.25;;;;;;;13.62;48.43;98947.25;4439175;32;33720;-87
2020/12/10 05:50:14;;;;;;;53.25;49.95;;;;;;;13.63;48.23;98949.78;4437338;32;33797;-86
2020/12/10 05:52:44;;;;;;;55.60;51.67;;;;;;;13.58;48.47;98948.34;4424583;32;34650;-87
2020/12/10 05:55:11;;;;;;;52.60;49.33;;;;;;;13.26;49.06;98948.34;4424429;32;32948;-86
2020/12/10 05:57:42;;;;;;;55.58;51.78;;;;;;;12.75;49.58;98938.81;4438221;32;33902;-85
2020/12/10 06:00:09;;;;;;;53.57;50.17;;;;;;;13.43;48.07;98942.19;4411602;32;33182;-86
2020/12/10 06:02:40;;;;;;;52.80;49.53;;;;;;;12.71;49.80;98958.22;4434802;32;33323;-85
2020/12/10 06:05:07;;;;;;;52.60;49.30;;;;;;;12.23;51.14;98944.97;4424693;32;34354;-87
2020/12/10 06:07:34;;;;;;;52.03;48.87;;;;;;;12.56;50.44;98949.37;4437309;32;33337;-85
2020/12/10 06:10:02;;;;;;;51.33;48.22;;;;;;;11.95;50.83;98951.56;4439036;32;34970;-87
2020/12/10 06:12:29;;;;;;;51.13;48.13;;;;;;;12.14;49.72;98958.50;4437879;32;33767;-87
2020/12/10 06:15:01;;;;;;;51.15;48.22;;;;;;;12.00;50.59;98952.16;4430998;32;33228;-84
2020/12/10 06:17:28;;;;;;;51.85;48.85;;;;;;;12.31;49.31;98949.78;4449682;32;34857;-83
2020/12/10 06:19:56;;;;;;;51.20;48.00;;;;;;;12.47;48.84;98953.31;4445367;32;35027;-86
2020/12/10 06:22:32;;;;;;;51.75;48.83;;;;;;;12.66;48.31;98961.03;4437314;32;34699;-85
2020/12/10 06:25:01;;;;;;;52.00;49.00;;;;;;;10.96;52.98;98966.56;4424188;32;32176;-86
2020/12/10 06:27:36;;;;;;;52.70;49.70;;;;;;;10.64;52.74;98970.63;4436718;32;33851;-86
2020/12/10 06:30:32;;;;;;;52.22;49.22;;;;;;;10.64;53.66;98970.63;4423671;32;32258;-86
2020/12/10 06:32:59;;;;;;;50.45;47.55;;;;;;;10.64;53.10;98979.25;4420740;32;33680;-85
2020/12/10 06:35:36;;;;;;;52.75;49.75;;;;;;;11.01;51.94;98982.03;4437982;32;33374;-84
2020/12/10 06:38:06;;;;;;;54.70;51.35;;;;;;;11.40;51.25;98977.66;4436078;32;34565;-84
2020/12/10 06:40:38;;;;;;;52.80;49.65;;;;;;;11.27;52.53;98977.38;4436113;32;34071;-84
2020/12/10 06:43:07;;;;;;;53.22;50.10;;;;;;;11.80;51.76;98987.03;4436085;32;33571;-85
2020/12/10 06:45:37;;;;;;;52.60;49.50;;;;;;;11.80;51.36;98980.97;4435817;32;34235;-85
2020/12/10 06:48:05;;;;;;;52.20;49.10;;;;;;;12.08;50.49;98982.28;4423048;32;32637;-83
2020/12/10 06:50:40;;;;;;;51.78;48.67;;;;;;;12.36;50.22;98985.22;4435864;32;34271;-84
2020/12/10 06:53:21;;;;;;;51.63;48.33;;;;;;;11.89;50.67;98987.53;4437679;32;33636;-85
2020/12/10 06:55:57;;;;;;;52.10;49.00;;;;;;;12.59;48.64;98985.81;4435717;32;32206;-85
2020/12/10 06:58:34;;;;;;;53.97;50.60;;;;;;;13.01;48.21;98975.81;4423202;32;33115;-83
2020/12/10 07:01:19;;;;;;;52.72;49.47;;;;;;;12.30;49.67;98980.28;4435987;32;33925;-86
2020/12/10 07:03:48;;;;;;;53.53;50.53;;;;;;;12.39;48.64;98986.84;4435410;32;33673;-84
2020/12/10 07:06:20;;;;;;;54.03;50.92;;;;;;;12.36;48.25;98982.63;4423003;32;33589;-84
2020/12/10 07:09:04;;;;;;;52.35;49.35;;;;;;;11.78;49.64;98988.03;4435137;32;32442;-83
2020/12/10 07:11:40;;;;;;;54.50;51.30;;;;;;;11.19;50.59;98989.00;4421877;32;33531;-85
2020/12/10 07:14:32;;;;;;;54.33;50.90;;;;;;;11.43;51.07;98994.00;4423236;32;33130;-84
2020/12/10 07:17:02;;;;;;;52.13;49.10;;;;;;;11.31;51.30;98994.56;4410414;32;32896;-84
2020/12/10 07:19:30;;;;;;;;;;;;;;;11.35;50.69;98991.75;4435728;32;33369;-84
2020/12/10 07:21:57;;;;;;;52.55;49.63;;;;;;;12.05;49.06;99000.72;4437101;32;34899;-85
2020/12/10 07:24:24;;;;;;;55.35;51.75;;;;;;;11.63;48.29;98998.31;4435904;32;33910;-85
2020/12/10 07:26:53;;;;;;;54.75;51.08;;;;;;;11.83;48.10;98999.09;4436942;32;34342;-84
2020/12/10 07:29:20;;;;;;;55.05;51.95;;;;;;;13.01;45.22;99001.94;4437354;32;33784;-82
2020/12/10 07:31:47;;;;;;;50.33;47.42;;;;;;;12.43;46.74;99000.56;4426158;32;33254;-82
2020/12/10 07:34:14;;;;;;;51.33;48.42;;;;;;;12.24;47.11;99006.72;4436871;32;35107;-84
2020/12/10 07:36:46;;;;;;;54.70;51.58;;;;;;;12.75;45.87;98996.31;4435042;32;33614;-85
2020/12/10 07:39:26;;;;;;;51.85;48.95;;;;;;;11.86;48.37;99007.63;4435633;32;34361;-86
2020/12/10 07:41:53;;;;;;;55.12;51.42;;;;;;;12.48;46.57;99006.41;4409924;32;32612;-85
2020/12/10 07:44:28;;;;;;;60.15;51.95;;;;;;;12.81;45.36;99001.22;4422597;32;33982;-85
2020/12/10 07:46:56;;;;;;;55.10;51.83;;;;;;;12.95;45.27;99000.50;4434848;32;33290;-87
2020/12/10 07:49:28;;;;;;;51.17;48.17;;;;;;;13.76;43.71;98996.19;4436571;32;33418;-87
2020/12/10 07:52:10;;;;;;;50.15;47.22;;;;;;;13.29;45.00;98996.06;4435177;32;34884;-85
2020/12/10 07:54:50;;;;;;;50.00;47.10;;;;;;;13.14;44.46;98992.53;4436627;32;34008;-84
2020/12/10 07:57:30;;;;;;;50.83;47.87;;;;;;;13.18;45.69;98994.03;4435059;32;33414;-85
2020/12/10 08:00:05;;;;;;;50.85;47.85;;;;;;;14.03;43.64;98999.88;4410254;32;32628;-84
2020/12/10 08:02:48;;;;;;;54.97;51.67;;;;;;;14.19;43.40;99004.25;4435448;32;34140;-84
2020/12/10 08:05:17;;;;;;;52.13;48.92;;;;;;;13.97;43.65;99008.09;4422515;32;33723;-84
2020/12/10 08:07:47;;;;;;;51.42;48.42;;;;;;;13.72;43.62;99008.63;4409901;32;32911;-84
2020/12/10 08:10:33;;;;;;;49.83;47.03;;;;;;;14.11;42.33;99015.16;4435086;32;34023;-84
2020/12/10 08:13:08;;;;;;;51.83;48.72;;;;;;;13.45;43.42;99016.22;4422744;32;32525;-84
2020/12/10 08:15:35;;;;;;;51.13;48.03;;;;;;;12.97;44.91;99024.78;4435102;32;33750;-84
2020/12/10 08:18:08;;;;;;;51.17;48.08;;;;;;;11.06;49.27;99032.16;4435175;32;33410;-85
2020/12/10 08:20:44;;;;;;;50.20;47.40;;;;;;;10.93;49.57;99036.22;4422392;32;34372;-86
2020/12/10 08:23:12;;;;;;;51.13;48.22;;;;;;;11.38;48.05;99040.34;4436983;32;35551;-84
2020/12/10 08:25:41;;;;;;;49.83;47.03;;;;;;;10.84;48.89;99042.69;4424251;32;32424;-84
2020/12/10 08:28:09;;;;;;;49.92;47.03;;;;;;;10.46;50.05;99043.41;4424173;32;32486;-84
2020/12/10 08:30:51;;;;;;;50.33;47.53;;;;;;;10.29;50.42;99045.81;4437017;32;34599;-85
2020/12/10 08:33:18;;;;;;;50.33;47.47;;;;;;;10.08;50.83;99050.13;4424266;32;33043;-84
2020/12/10 08:35:46;;;;;;;51.03;47.97;;;;;;;9.59;52.41;99064.16;4424516;32;32905;-84
2020/12/10 08:38:15;;;;;;;50.42;47.53;;;;;;;9.67;52.33;99059.50;4439124;32;34361;-84
2020/12/10 08:40:43;;;;;;;50.67;47.78;;;;;;;9.67;52.85;99063.87;4413865;32;33112;-83
2020/12/10 08:43:13;;;;;;;50.47;47.62;;;;;;;9.69;52.64;99062.03;4425136;32;33581;-82
2020/12/10 08:45:44;;;;;;;50.35;47.45;;;;;;;9.35;52.66;99061.56;4438228;32;33255;-83
2020/12/10 08:48:23;;;;;;;49.88;46.97;;;;;;;9.41;52.39;99067.44;4426401;32;32933;-84
2020/12/10 08:50:59;;;;;;;50.97;48.08;;;;;;;9.58;51.63;99072.00;4424567;32;33687;-83
2020/12/10 08:53:26;;;;;;;50.83;47.83;;;;;;;9.21;53.01;99071.59;4436827;32;34141;-83
2020/12/10 08:55:56;;;;;;;51.58;48.58;;;;;;;8.74;54.24;99077.56;4412208;32;32311;-84
2020/12/10 08:58:25;;;;;;;52.65;49.25;;;;;;;9.46;53.02;99075.91;4412006;32;33460;-84
2020/12/10 09:00:54;;;;;;;53.03;49.22;;;;;;;10.24;50.82;99082.47;4409614;32;33482;-84
2020/12/10 09:03:23;;;;;;;52.88;48.97;;;;;;;9.42;52.24;99080.38;4421715;32;33743;-84
2020/12/10 09:05:51;;;;;;;52.28;49.05;;;;;;;9.93;51.71;99070.69;4421152;32;33423;-85
2020/12/10 09:08:19;;;;;;;52.38;49.17;;;;;;;10.22;50.43;99075.62;4419839;32;33288;-85
2020/12/10 09:10:46;;;;;;;53.60;49.88;;;;;;;9.66;51.37;99073.41;4422538;32;33592;-85
2020/12/10 09:13:13;;;;;;;53.85;49.75;;;;;;;9.58;52.39;99078.06;4408696;32;33935;-84
2020/12/10 09:15:44;;;;;;;52.45;48.92;;;;;;;9.47;52.63;99080.22;4421592;32;33900;-84
2020/12/10 09:18:12;;;;;;;53.15;49.65;;;;;;;9.04;53.48;99082.62;4423324;32;33397;-84
2020/12/10 09:20:40;;;;;;;53.33;49.83;;;;;;;9.28;53.70;99083.50;4421446;32;34365;-85
2020/12/10 09:23:09;;;;;;;53.78;50.17;;;;;;;9.72;52.18;99089.69;4428449;32;34771;-85
2020/12/10 09:25:36;;;;;;;54.45;50.72;;;;;;;9.93;52.23;99085.41;4436791;32;34523;-84
2020/12/10 09:28:05;;;;;;;54.38;50.58;;;;;;;10.55;50.50;99085.63;4430066;32;33097;-83
2020/12/10 09:30:32;;;;;;;53.70;50.28;;;;;;;9.84;51.86;99087.47;4421185;32;34813;-84
2020/12/10 09:33:00;;;;;;;53.17;49.72;;;;;;;10.44;50.06;99086.06;4426812;32;33672;-86
2020/12/10 09:35:27;;;;;;;55.08;51.35;;;;;;;10.22;50.62;99083.44;4420909;32;34611;-85
2020/12/10 09:37:55;;;;;;;54.80;51.13;;;;;;;10.59;49.63;99080.19;4421710;32;33436;-83
2020/12/10 09:40:22;;;;;;;54.13;50.58;;;;;;;9.84;51.11;99079.66;4395863;32;33155;-84
2020/12/10 09:42:50;;;;;;;54.63;51.15;;;;;;;10.18;50.55;99080.97;4433082;32;34694;-84
2020/12/10 09:45:18;;;;;;;54.67;51.08;;;;;;;9.94;50.79;99080.16;4411461;32;32991;-84
2020/12/10 09:47:46;;;;;;;54.03;50.47;;;;;;;11.25;47.74;99076.53;4424340;32;33617;-83
2020/12/10 09:50:36;;;;;;;55.60;52.00;;;;;;;10.42;49.91;99080.88;4437015;32;33576;-83
2020/12/10 09:53:12;;;;;;;55.28;51.47;;;;;;;10.29;50.55;99083.12;4436624;32;34172;-83
2020/12/10 09:55:47;;;;;;;54.67;51.03;;;;;;;11.09;48.11;99073.75;4412673;32;32512;-83
2020/12/10 09:58:14;;;;;;;56.72;52.62;;;;;;;10.64;49.19;99065.22;4424787;32;32393;-83
2020/12/10 10:00:46;;;;;;;54.17;50.53;;;;;;;10.16;50.26;99071.53;4436296;32;34836;-84
2020/12/10 10:03:13;;;;;;;54.60;50.92;;;;;;;10.77;49.05;99068.19;4436102;32;34998;-84
2020/12/10 10:05:55;;;;;;;53.83;50.33;;;;;;;10.64;49.41;99080.88;4436689;32;34726;-82
2020/12/10 10:08:24;;;;;;;54.35;50.72;;;;;;;10.38;49.58;99078.50;4410911;32;32585;-83
2020/12/10 10:10:52;;;;;;;54.83;51.15;;;;;;;10.46;50.05;99072.06;4437537;32;34810;-84
2020/12/10 10:13:19;;;;;;;54.30;50.40;;;;;;;9.94;51.46;99079.31;4437547;32;34766;-83
2020/12/10 10:15:47;;;;;;;53.08;49.72;;;;;;;9.96;50.85;99074.91;4437662;32;33804;-83
2020/12/10 10:18:16;;;;;;;55.00;51.53;;;;;;;10.00;50.55;99066.91;4423505;32;32979;-85
2020/12/10 10:20:44;;;;;;;54.85;51.30;;;;;;;10.07;50.71;99064.06;4423433;32;33414;-84
2020/12/10 10:23:11;;;;;;;53.85;50.40;;;;;;;11.06;48.35;99065.22;4436118;32;34423;-83
2020/12/10 10:25:39;;;;;;;55.63;51.97;;;;;;;11.35;47.13;99070.00;4423053;32;34679;-84
2020/12/10 10:28:07;;;;;;;54.47;50.70;;;;;;;11.96;45.72;99068.09;4434943;32;34279;-83
2020/12/10 10:30:37;;;;;;;55.20;51.60;;;;;;;11.38;47.12;99062.94;4438443;32;33458;-83
2020/12/10 10:33:04;;;;;;;55.97;52.17;;;;;;;12.15;45.15;99065.47;4433167;32;33646;-84
2020/12/10 10:35:36;;;;;;;54.15;50.58;;;;;;;11.61;46.65;99064.53;4408890;32;32670;-84
2020/12/10 10:38:03;;;;;;;54.28;50.67;;;;;;;11.47;46.93;99067.75;4421720;32;34276;-85
2020/12/10 10:40:31;;;;;;;54.05;50.42;;;;;;;11.82;45.82;99060.91;4420957;32;33871;-83
2020/12/10 10:42:59;;;;;;;55.15;51.25;;;;;;;11.20;47.10;99065.47;4408357;32;33996;-85
2020/12/10 10:45:26;;;;;;;55.08;51.37;;;;;;;11.13;47.18;99069.25;4408355;32;33826;-84
2020/12/10 10:47:54;;;;;;;54.17;50.58;;;;;;;10.84;47.57;99073.97;4422167;32;33722;-84
2020/12/10 10:50:21;;;;;;;54.83;51.20;;;;;;;11.45;46.43;99073.03;4422203;32;33576;-83
2020/12/10 10:52:49;;;;;;;54.42;50.92;;;;;;;10.70;47.91;99074.53;4408406;32;33452;-83
2020/12/10 10:55:16;;;;;;;55.30;51.45;;;;;;;11.09;47.15;99068.53;4422220;32;33852;-84
2020/12/10 10:57:43;;;;;;;55.25;51.53;;;;;;;10.40;49.50;99056.69;4421280;32;33190;-82
2020/12/10 11:00:10;;;;;;;55.03;51.33;;;;;;;10.59;49.09;99069.78;4421179;32;33845;-85
2020/12/10 11:02:38;;;;;;;57.13;53.03;;;;;;;11.22;47.17;99068.00;4422437;32;34031;-83
2020/12/10 11:05:05;;;;;;;57.20;53.35;;;;;;;10.97;47.41;99072.53;4410436;32;32923;-83
2020/12/10 11:07:33;;;;;;;56.60;52.67;;;;;;;10.86;48.16;99066.91;4423340;32;32925;-82
2020/12/10 11:10:00;;;;;;;57.17;53.00;;;;;;;11.00;47.54;99063.72;4422257;32;32679;-83
2020/12/10 11:12:28;;;;;;;56.22;52.15;;;;;;;10.83;48.36;99067.06;4421518;32;33631;-84
2020/12/10 11:14:55;;;;;;;57.50;53.28;;;;;;;11.28;47.42;99071.19;4435477;32;33796;-83
2020/12/10 11:17:23;;;;;;;59.53;55.22;;;;;;;10.72;48.42;99071.91;4411354;32;34373;-84
2020/12/10 11:19:51;;;;;;;55.83;51.80;;;;;;;11.42;46.87;99069.72;4435388;32;33939;-84
2020/12/10 11:22:23;;;;;;;56.88;52.80;;;;;;;11.10;47.95;99072.84;4436702;32;33629;-83
2020/12/10 11:24:51;;;;;;;56.90;52.78;;;;;;;10.26;50.13;99078.03;4436051;32;33284;-83
2020/12/10 11:27:18;;;;;;;57.92;53.92;;;;;;;10.09;50.78;99080.47;4436751;32;33341;-83
2020/12/10 11:29:45;;;;;;;55.85;52.05;;;;;;;9.96;50.43;99086.16;4423203;32;33321;-84
2020/12/10 11:32:15;;;;;;;56.92;53.03;;;;;;;9.69;51.47;99094.13;4436705;32;33750;-83